sensor_id;sensor_type;location;lat;lon;timestamp;temperature;humidity
22738;DHT22;11536;50.860;4.286;2022-07-06T00:01:18;16.20;98.80
22738;DHT22;11536;50.860;4.286;2022-07-06T00:03:44;16.20;98.80
22738;DHT22;11536;50.860;4.286;2022-07-06T00:06:10;16.20;98.80
22738;DHT22;11536;50.860;4.286;2022-07-06T00:08:36;16.20;98.90
22738;DHT22;11536;50.860;4.286;2022-07-06T00:11:02;16.20;98.90
22738;DHT22;11536;50.860;4.286;2022-07-06T00:13:28;16.10;99.20
22738;DHT22;11536;50.860;4.286;2022-07-06T00:15:53;16.10;99.00
22738;DHT22;11536;50.860;4.286;2022-07-06T00:18:19;16.10;99.00
22738;DHT22;11536;50.860;4.286;2022-07-06T00:20:45;16.00;99.10
22738;DHT22;11536;50.860;4.286;2022-07-06T00:23:11;16.00;99.00
22738;DHT22;11536;50.860;4.286;2022-07-06T00:25:36;15.90;99.20
22738;DHT22;11536;50.860;4.286;2022-07-06T00:28:02;15.90;99.60
22738;DHT22;11536;50.860;4.286;2022-07-06T00:30:28;15.90;99.30
22738;DHT22;11536;50.860;4.286;2022-07-06T00:32:54;15.90;99.30
22738;DHT22;11536;50.860;4.286;2022-07-06T00:35:20;15.90;99.20
22738;DHT22;11536;50.860;4.286;2022-07-06T00:37:45;15.90;99.30
22738;DHT22;11536;50.860;4.286;2022-07-06T00:40:11;15.80;99.30
22738;DHT22;11536;50.860;4.286;2022-07-06T00:42:45;15.80;99.40
22738;DHT22;11536;50.860;4.286;2022-07-06T00:45:12;15.80;99.40
22738;DHT22;11536;50.860;4.286;2022-07-06T00:47:39;15.80;99.40
22738;DHT22;11536;50.860;4.286;2022-07-06T00:50:06;15.70;99.50
22738;DHT22;11536;50.860;4.286;2022-07-06T00:52:42;15.70;99.50
22738;DHT22;11536;50.860;4.286;2022-07-06T00:55:09;15.60;99.60
22738;DHT22;11536;50.860;4.286;2022-07-06T00:57:35;15.60;99.60
22738;DHT22;11536;50.860;4.286;2022-07-06T01:00:03;15.60;99.70
22738;DHT22;11536;50.860;4.286;2022-07-06T01:02:31;15.60;99.80
22738;DHT22;11536;50.860;4.286;2022-07-06T01:04:57;15.50;99.70
22738;DHT22;11536;50.860;4.286;2022-07-06T01:07:23;15.50;99.80
22738;DHT22;11536;50.860;4.286;2022-07-06T01:09:48;15.50;99.80
22738;DHT22;11536;50.860;4.286;2022-07-06T01:12:14;15.50;99.80
22738;DHT22;11536;50.860;4.286;2022-07-06T01:14:40;15.50;99.80
22738;DHT22;11536;50.860;4.286;2022-07-06T01:17:07;15.50;99.90
22738;DHT22;11536;50.860;4.286;2022-07-06T01:19:33;15.50;99.90
22738;DHT22;11536;50.860;4.286;2022-07-06T01:21:59;15.40;99.90
22738;DHT22;11536;50.860;4.286;2022-07-06T01:24:25;15.40;99.90
22738;DHT22;11536;50.860;4.286;2022-07-06T01:26:50;15.40;99.90
22738;DHT22;11536;50.860;4.286;2022-07-06T01:29:17;15.30;99.90
22738;DHT22;11536;50.860;4.286;2022-07-06T01:31:47;15.30;99.90
22738;DHT22;11536;50.860;4.286;2022-07-06T01:34:17;15.30;99.90
22738;DHT22;11536;50.860;4.286;2022-07-06T01:36:43;15.30;99.90
22738;DHT22;11536;50.860;4.286;2022-07-06T01:39:09;15.20;99.90
22738;DHT22;11536;50.860;4.286;2022-07-06T01:41:35;15.20;99.90
22738;DHT22;11536;50.860;4.286;2022-07-06T01:44:01;15.10;99.90
22738;DHT22;11536;50.860;4.286;2022-07-06T01:46:27;15.00;99.90
22738;DHT22;11536;50.860;4.286;2022-07-06T01:48:53;15.00;99.90
22738;DHT22;11536;50.860;4.286;2022-07-06T01:51:18;14.90;99.90
22738;DHT22;11536;50.860;4.286;2022-07-06T01:53:44;15.00;99.90
22738;DHT22;11536;50.860;4.286;2022-07-06T01:56:11;15.00;99.90
22738;DHT22;11536;50.860;4.286;2022-07-06T01:58:37;15.00;99.90
22738;DHT22;11536;50.860;4.286;2022-07-06T02:01:09;15.00;99.90
22738;DHT22;11536;50.860;4.286;2022-07-06T02:03:36;15.00;99.90
22738;DHT22;11536;50.860;4.286;2022-07-06T02:06:03;15.00;99.90
22738;DHT22;11536;50.860;4.286;2022-07-06T02:08:29;15.00;99.90
22738;DHT22;11536;50.860;4.286;2022-07-06T02:10:55;15.00;99.90
22738;DHT22;11536;50.860;4.286;2022-07-06T02:13:21;15.00;99.90
22738;DHT22;11536;50.860;4.286;2022-07-06T02:15:46;15.00;99.90
22738;DHT22;11536;50.860;4.286;2022-07-06T02:18:12;15.00;99.90
22738;DHT22;11536;50.860;4.286;2022-07-06T02:20:37;15.00;99.90
22738;DHT22;11536;50.860;4.286;2022-07-06T02:23:03;15.00;99.90
22738;DHT22;11536;50.860;4.286;2022-07-06T02:25:29;14.90;99.90
22738;DHT22;11536;50.860;4.286;2022-07-06T02:27:54;14.80;99.90
22738;DHT22;11536;50.860;4.286;2022-07-06T02:30:20;14.80;99.90
22738;DHT22;11536;50.860;4.286;2022-07-06T02:32:46;14.80;99.90
22738;DHT22;11536;50.860;4.286;2022-07-06T02:35:11;14.80;99.90
22738;DHT22;11536;50.860;4.286;2022-07-06T02:37:37;14.80;99.90
22738;DHT22;11536;50.860;4.286;2022-07-06T02:40:03;14.70;99.90
22738;DHT22;11536;50.860;4.286;2022-07-06T02:42:29;14.70;99.90
22738;DHT22;11536;50.860;4.286;2022-07-06T02:44:54;14.70;99.90
22738;DHT22;11536;50.860;4.286;2022-07-06T02:47:20;14.70;99.90
22738;DHT22;11536;50.860;4.286;2022-07-06T02:49:46;14.70;99.90
22738;DHT22;11536;50.860;4.286;2022-07-06T02:52:12;14.70;99.90
22738;DHT22;11536;50.860;4.286;2022-07-06T02:54:37;14.70;99.90
22738;DHT22;11536;50.860;4.286;2022-07-06T02:57:03;14.70;99.90
22738;DHT22;11536;50.860;4.286;2022-07-06T02:59:28;14.70;99.90
22738;DHT22;11536;50.860;4.286;2022-07-06T03:01:54;14.60;99.90
22738;DHT22;11536;50.860;4.286;2022-07-06T03:04:20;14.60;99.90
22738;DHT22;11536;50.860;4.286;2022-07-06T03:06:45;14.60;99.90
22738;DHT22;11536;50.860;4.286;2022-07-06T03:09:11;14.60;99.90
22738;DHT22;11536;50.860;4.286;2022-07-06T03:11:37;14.60;99.90
22738;DHT22;11536;50.860;4.286;2022-07-06T03:14:03;14.60;99.90
22738;DHT22;11536;50.860;4.286;2022-07-06T03:16:29;14.60;99.90
22738;DHT22;11536;50.860;4.286;2022-07-06T03:18:55;14.60;99.90
22738;DHT22;11536;50.860;4.286;2022-07-06T03:21:20;14.60;99.90
22738;DHT22;11536;50.860;4.286;2022-07-06T03:23:46;14.50;99.90
22738;DHT22;11536;50.860;4.286;2022-07-06T03:26:11;14.60;99.90
22738;DHT22;11536;50.860;4.286;2022-07-06T03:28:37;14.60;99.90
22738;DHT22;11536;50.860;4.286;2022-07-06T03:31:02;14.50;99.90
22738;DHT22;11536;50.860;4.286;2022-07-06T03:33:28;14.50;99.90
22738;DHT22;11536;50.860;4.286;2022-07-06T03:35:54;14.50;99.90
22738;DHT22;11536;50.860;4.286;2022-07-06T03:38:19;14.50;99.90
22738;DHT22;11536;50.860;4.286;2022-07-06T03:40:45;14.50;99.90
22738;DHT22;11536;50.860;4.286;2022-07-06T03:43:10;14.50;99.90
22738;DHT22;11536;50.860;4.286;2022-07-06T03:45:36;14.50;99.90
22738;DHT22;11536;50.860;4.286;2022-07-06T03:48:02;14.50;99.90
22738;DHT22;11536;50.860;4.286;2022-07-06T03:50:28;14.40;99.90
22738;DHT22;11536;50.860;4.286;2022-07-06T03:52:53;14.40;99.90
22738;DHT22;11536;50.860;4.286;2022-07-06T03:55:19;14.40;99.90
22738;DHT22;11536;50.860;4.286;2022-07-06T03:57:44;14.40;99.90
22738;DHT22;11536;50.860;4.286;2022-07-06T04:00:10;14.40;99.90
22738;DHT22;11536;50.860;4.286;2022-07-06T04:02:36;14.40;99.90
22738;DHT22;11536;50.860;4.286;2022-07-06T04:05:02;14.50;99.90
22738;DHT22;11536;50.860;4.286;2022-07-06T04:07:27;14.50;99.90
22738;DHT22;11536;50.860;4.286;2022-07-06T04:09:53;14.50;99.90
22738;DHT22;11536;50.860;4.286;2022-07-06T04:12:18;14.60;99.90
22738;DHT22;11536;50.860;4.286;2022-07-06T04:14:44;14.60;99.90
22738;DHT22;11536;50.860;4.286;2022-07-06T04:17:10;14.60;99.90
22738;DHT22;11536;50.860;4.286;2022-07-06T04:19:54;14.60;99.90
22738;DHT22;11536;50.860;4.286;2022-07-06T04:22:19;14.60;99.90
22738;DHT22;11536;50.860;4.286;2022-07-06T04:24:45;14.60;99.90
22738;DHT22;11536;50.860;4.286;2022-07-06T04:27:11;14.60;99.90
22738;DHT22;11536;50.860;4.286;2022-07-06T04:29:36;14.60;99.90
22738;DHT22;11536;50.860;4.286;2022-07-06T04:32:03;14.70;99.90
22738;DHT22;11536;50.860;4.286;2022-07-06T04:34:28;14.70;99.90
22738;DHT22;11536;50.860;4.286;2022-07-06T04:36:54;14.70;99.90
22738;DHT22;11536;50.860;4.286;2022-07-06T04:39:20;14.70;99.90
22738;DHT22;11536;50.860;4.286;2022-07-06T04:41:45;14.70;99.90
22738;DHT22;11536;50.860;4.286;2022-07-06T04:44:11;14.70;99.90
22738;DHT22;11536;50.860;4.286;2022-07-06T04:46:36;14.70;99.90
22738;DHT22;11536;50.860;4.286;2022-07-06T04:49:02;14.70;99.90
22738;DHT22;11536;50.860;4.286;2022-07-06T04:51:27;14.70;99.90
22738;DHT22;11536;50.860;4.286;2022-07-06T04:53:53;14.70;99.90
22738;DHT22;11536;50.860;4.286;2022-07-06T04:56:18;14.80;99.90
22738;DHT22;11536;50.860;4.286;2022-07-06T04:58:44;14.80;99.90
22738;DHT22;11536;50.860;4.286;2022-07-06T05:01:10;14.80;99.90
22738;DHT22;11536;50.860;4.286;2022-07-06T05:03:35;14.80;99.90
22738;DHT22;11536;50.860;4.286;2022-07-06T05:06:05;14.80;99.90
22738;DHT22;11536;50.860;4.286;2022-07-06T05:08:31;14.80;99.90
22738;DHT22;11536;50.860;4.286;2022-07-06T05:10:57;14.80;99.90
22738;DHT22;11536;50.860;4.286;2022-07-06T05:13:22;14.80;99.90
22738;DHT22;11536;50.860;4.286;2022-07-06T05:15:48;14.90;99.90
22738;DHT22;11536;50.860;4.286;2022-07-06T05:18:13;14.90;99.90
22738;DHT22;11536;50.860;4.286;2022-07-06T05:20:39;14.90;99.90
22738;DHT22;11536;50.860;4.286;2022-07-06T05:23:05;14.90;99.90
22738;DHT22;11536;50.860;4.286;2022-07-06T05:25:30;15.00;99.90
22738;DHT22;11536;50.860;4.286;2022-07-06T05:27:58;15.00;99.90
22738;DHT22;11536;50.860;4.286;2022-07-06T05:30:24;15.10;99.90
22738;DHT22;11536;50.860;4.286;2022-07-06T05:32:49;15.10;99.90
22738;DHT22;11536;50.860;4.286;2022-07-06T05:35:15;15.10;99.90
22738;DHT22;11536;50.860;4.286;2022-07-06T05:37:41;15.20;99.90
22738;DHT22;11536;50.860;4.286;2022-07-06T05:40:07;15.20;99.90
22738;DHT22;11536;50.860;4.286;2022-07-06T05:42:33;15.30;99.90
22738;DHT22;11536;50.860;4.286;2022-07-06T05:44:58;15.30;99.90
22738;DHT22;11536;50.860;4.286;2022-07-06T05:47:24;15.30;99.90
22738;DHT22;11536;50.860;4.286;2022-07-06T05:50:08;15.40;99.90
22738;DHT22;11536;50.860;4.286;2022-07-06T05:52:44;15.40;99.90
22738;DHT22;11536;50.860;4.286;2022-07-06T05:55:11;15.50;99.90
22738;DHT22;11536;50.860;4.286;2022-07-06T05:57:38;15.50;99.90
22738;DHT22;11536;50.860;4.286;2022-07-06T06:00:05;15.50;99.90
22738;DHT22;11536;50.860;4.286;2022-07-06T06:02:41;15.60;99.90
22738;DHT22;11536;50.860;4.286;2022-07-06T06:05:08;15.60;99.90
22738;DHT22;11536;50.860;4.286;2022-07-06T06:07:38;15.70;99.90
22738;DHT22;11536;50.860;4.286;2022-07-06T06:10:05;15.70;99.90
22738;DHT22;11536;50.860;4.286;2022-07-06T06:12:31;15.80;99.90
22738;DHT22;11536;50.860;4.286;2022-07-06T06:14:57;15.90;99.90
22738;DHT22;11536;50.860;4.286;2022-07-06T06:17:23;16.00;99.90
22738;DHT22;11536;50.860;4.286;2022-07-06T06:19:48;16.00;99.90
22738;DHT22;11536;50.860;4.286;2022-07-06T06:22:14;16.10;99.90
22738;DHT22;11536;50.860;4.286;2022-07-06T06:24:40;16.10;99.90
22738;DHT22;11536;50.860;4.286;2022-07-06T06:27:06;16.20;99.90
22738;DHT22;11536;50.860;4.286;2022-07-06T06:29:32;16.30;99.90
22738;DHT22;11536;50.860;4.286;2022-07-06T06:31:58;16.30;99.90
22738;DHT22;11536;50.860;4.286;2022-07-06T06:34:24;16.40;99.90
22738;DHT22;11536;50.860;4.286;2022-07-06T06:36:49;16.50;99.90
22738;DHT22;11536;50.860;4.286;2022-07-06T06:39:15;16.50;99.90
22738;DHT22;11536;50.860;4.286;2022-07-06T06:41:41;16.60;99.90
22738;DHT22;11536;50.860;4.286;2022-07-06T06:44:06;16.70;99.90
22738;DHT22;11536;50.860;4.286;2022-07-06T06:46:32;16.70;99.90
22738;DHT22;11536;50.860;4.286;2022-07-06T06:48:57;16.70;99.90
22738;DHT22;11536;50.860;4.286;2022-07-06T06:51:23;16.80;99.90
22738;DHT22;11536;50.860;4.286;2022-07-06T06:53:49;16.80;99.90
22738;DHT22;11536;50.860;4.286;2022-07-06T06:56:14;16.90;99.90
22738;DHT22;11536;50.860;4.286;2022-07-06T06:58:40;16.90;99.90
22738;DHT22;11536;50.860;4.286;2022-07-06T07:01:05;17.00;99.90
22738;DHT22;11536;50.860;4.286;2022-07-06T07:03:31;17.00;99.90
22738;DHT22;11536;50.860;4.286;2022-07-06T07:05:57;17.10;99.90
22738;DHT22;11536;50.860;4.286;2022-07-06T07:08:23;17.20;99.90
22738;DHT22;11536;50.860;4.286;2022-07-06T07:10:49;17.20;99.90
22738;DHT22;11536;50.860;4.286;2022-07-06T07:13:14;17.30;99.90
22738;DHT22;11536;50.860;4.286;2022-07-06T07:15:40;17.30;99.90
22738;DHT22;11536;50.860;4.286;2022-07-06T07:18:06;17.30;99.90
22738;DHT22;11536;50.860;4.286;2022-07-06T07:20:31;17.40;99.90
22738;DHT22;11536;50.860;4.286;2022-07-06T07:22:59;17.40;99.90
22738;DHT22;11536;50.860;4.286;2022-07-06T07:25:25;17.40;99.90
22738;DHT22;11536;50.860;4.286;2022-07-06T07:27:50;17.40;99.90
22738;DHT22;11536;50.860;4.286;2022-07-06T07:30:16;17.50;99.90
22738;DHT22;11536;50.860;4.286;2022-07-06T07:32:42;17.50;99.90
22738;DHT22;11536;50.860;4.286;2022-07-06T07:35:08;17.50;99.90
22738;DHT22;11536;50.860;4.286;2022-07-06T07:37:33;17.60;99.90
22738;DHT22;11536;50.860;4.286;2022-07-06T07:40:00;17.60;99.90
22738;DHT22;11536;50.860;4.286;2022-07-06T07:42:26;17.70;99.90
22738;DHT22;11536;50.860;4.286;2022-07-06T07:44:52;17.70;99.90
22738;DHT22;11536;50.860;4.286;2022-07-06T07:47:17;17.70;99.90
22738;DHT22;11536;50.860;4.286;2022-07-06T07:49:43;17.80;99.90
22738;DHT22;11536;50.860;4.286;2022-07-06T07:52:09;17.80;99.90
22738;DHT22;11536;50.860;4.286;2022-07-06T07:54:35;17.90;99.90
22738;DHT22;11536;50.860;4.286;2022-07-06T07:57:00;17.80;99.90
22738;DHT22;11536;50.860;4.286;2022-07-06T07:59:26;17.90;99.90
22738;DHT22;11536;50.860;4.286;2022-07-06T08:01:52;17.90;99.90
22738;DHT22;11536;50.860;4.286;2022-07-06T08:04:17;17.90;99.90
22738;DHT22;11536;50.860;4.286;2022-07-06T08:06:43;17.90;99.90
22738;DHT22;11536;50.860;4.286;2022-07-06T08:09:09;18.00;99.90
22738;DHT22;11536;50.860;4.286;2022-07-06T08:11:35;18.00;99.90
22738;DHT22;11536;50.860;4.286;2022-07-06T08:14:01;18.10;99.90
22738;DHT22;11536;50.860;4.286;2022-07-06T08:16:27;18.10;99.90
22738;DHT22;11536;50.860;4.286;2022-07-06T08:18:53;18.20;99.90
22738;DHT22;11536;50.860;4.286;2022-07-06T08:21:18;18.20;99.90
22738;DHT22;11536;50.860;4.286;2022-07-06T08:23:44;18.20;99.90
22738;DHT22;11536;50.860;4.286;2022-07-06T08:26:10;18.30;99.90
22738;DHT22;11536;50.860;4.286;2022-07-06T08:28:35;18.30;99.90
22738;DHT22;11536;50.860;4.286;2022-07-06T08:31:01;18.30;99.90
22738;DHT22;11536;50.860;4.286;2022-07-06T08:33:26;18.40;99.90
22738;DHT22;11536;50.860;4.286;2022-07-06T08:35:52;18.40;99.90
22738;DHT22;11536;50.860;4.286;2022-07-06T08:38:18;18.50;99.90
22738;DHT22;11536;50.860;4.286;2022-07-06T08:40:47;18.50;99.90
22738;DHT22;11536;50.860;4.286;2022-07-06T08:43:13;18.50;99.90
22738;DHT22;11536;50.860;4.286;2022-07-06T08:45:40;18.60;99.90
22738;DHT22;11536;50.860;4.286;2022-07-06T08:48:07;18.60;99.90
22738;DHT22;11536;50.860;4.286;2022-07-06T08:50:33;18.60;99.90
22738;DHT22;11536;50.860;4.286;2022-07-06T08:53:00;18.60;99.90
22738;DHT22;11536;50.860;4.286;2022-07-06T08:55:26;18.60;99.90
22738;DHT22;11536;50.860;4.286;2022-07-06T08:57:55;18.70;99.90
22738;DHT22;11536;50.860;4.286;2022-07-06T09:00:21;18.70;99.90
22738;DHT22;11536;50.860;4.286;2022-07-06T09:02:48;18.80;99.90
22738;DHT22;11536;50.860;4.286;2022-07-06T09:05:16;18.80;99.90
22738;DHT22;11536;50.860;4.286;2022-07-06T09:07:45;18.90;99.90
22738;DHT22;11536;50.860;4.286;2022-07-06T09:10:14;19.00;99.90
22738;DHT22;11536;50.860;4.286;2022-07-06T09:12:39;19.10;99.90
22738;DHT22;11536;50.860;4.286;2022-07-06T09:15:05;19.20;99.90
22738;DHT22;11536;50.860;4.286;2022-07-06T09:17:31;19.20;99.90
22738;DHT22;11536;50.860;4.286;2022-07-06T09:19:57;19.30;99.90
22738;DHT22;11536;50.860;4.286;2022-07-06T09:22:31;19.30;99.90
22738;DHT22;11536;50.860;4.286;2022-07-06T09:27:37;19.30;99.90
22738;DHT22;11536;50.860;4.286;2022-07-06T09:30:04;19.40;99.90
22738;DHT22;11536;50.860;4.286;2022-07-06T09:32:31;19.40;99.90
22738;DHT22;11536;50.860;4.286;2022-07-06T09:34:57;19.40;99.90
22738;DHT22;11536;50.860;4.286;2022-07-06T09:37:23;19.40;99.90
22738;DHT22;11536;50.860;4.286;2022-07-06T09:39:49;19.40;99.90
22738;DHT22;11536;50.860;4.286;2022-07-06T09:42:15;19.40;99.90
22738;DHT22;11536;50.860;4.286;2022-07-06T09:44:41;19.40;99.90
22738;DHT22;11536;50.860;4.286;2022-07-06T09:47:11;19.40;99.90
22738;DHT22;11536;50.860;4.286;2022-07-06T09:49:38;19.40;99.90
22738;DHT22;11536;50.860;4.286;2022-07-06T09:52:06;19.40;99.90
22738;DHT22;11536;50.860;4.286;2022-07-06T09:54:33;19.50;99.90
22738;DHT22;11536;50.860;4.286;2022-07-06T09:56:59;19.50;99.90
22738;DHT22;11536;50.860;4.286;2022-07-06T09:59:27;19.60;99.90
22738;DHT22;11536;50.860;4.286;2022-07-06T10:01:57;19.60;99.90
22738;DHT22;11536;50.860;4.286;2022-07-06T10:04:25;19.60;99.90
22738;DHT22;11536;50.860;4.286;2022-07-06T10:06:52;19.60;99.90
22738;DHT22;11536;50.860;4.286;2022-07-06T10:09:20;19.60;99.90
22738;DHT22;11536;50.860;4.286;2022-07-06T10:14:21;19.70;99.90
22738;DHT22;11536;50.860;4.286;2022-07-06T10:16:48;19.70;99.90
22738;DHT22;11536;50.860;4.286;2022-07-06T10:19:14;19.70;99.90
22738;DHT22;11536;50.860;4.286;2022-07-06T10:21:41;19.70;99.90
22738;DHT22;11536;50.860;4.286;2022-07-06T10:24:08;19.80;99.90
22738;DHT22;11536;50.860;4.286;2022-07-06T10:26:35;19.80;99.90
22738;DHT22;11536;50.860;4.286;2022-07-06T10:29:02;19.90;99.90
22738;DHT22;11536;50.860;4.286;2022-07-06T10:31:29;19.90;99.90
22738;DHT22;11536;50.860;4.286;2022-07-06T10:33:57;19.90;99.90
22738;DHT22;11536;50.860;4.286;2022-07-06T10:36:24;20.00;99.90
22738;DHT22;11536;50.860;4.286;2022-07-06T10:38:51;20.00;99.90
22738;DHT22;11536;50.860;4.286;2022-07-06T10:41:17;19.90;99.90
22738;DHT22;11536;50.860;4.286;2022-07-06T10:43:46;19.90;99.90
22738;DHT22;11536;50.860;4.286;2022-07-06T10:46:16;19.90;99.90
22738;DHT22;11536;50.860;4.286;2022-07-06T10:48:44;19.90;99.90
22738;DHT22;11536;50.860;4.286;2022-07-06T10:51:24;20.00;99.90
22738;DHT22;11536;50.860;4.286;2022-07-06T10:54:17;20.00;99.90
22738;DHT22;11536;50.860;4.286;2022-07-06T10:56:46;20.10;99.90
22738;DHT22;11536;50.860;4.286;2022-07-06T10:59:15;20.10;99.90
22738;DHT22;11536;50.860;4.286;2022-07-06T11:02:14;20.20;99.90
22738;DHT22;11536;50.860;4.286;2022-07-06T11:04:45;20.20;99.90
22738;DHT22;11536;50.860;4.286;2022-07-06T11:07:13;20.20;99.90
22738;DHT22;11536;50.860;4.286;2022-07-06T11:09:39;20.30;99.90
22738;DHT22;11536;50.860;4.286;2022-07-06T11:12:18;20.40;99.90
22738;DHT22;11536;50.860;4.286;2022-07-06T11:14:45;20.40;99.90
22738;DHT22;11536;50.860;4.286;2022-07-06T11:17:12;20.50;99.90
22738;DHT22;11536;50.860;4.286;2022-07-06T11:19:38;20.50;99.90
22738;DHT22;11536;50.860;4.286;2022-07-06T11:22:09;20.50;99.90
22738;DHT22;11536;50.860;4.286;2022-07-06T11:24:40;20.50;99.90
22738;DHT22;11536;50.860;4.286;2022-07-06T11:27:06;20.50;99.90
22738;DHT22;11536;50.860;4.286;2022-07-06T11:29:33;20.50;99.90
22738;DHT22;11536;50.860;4.286;2022-07-06T11:32:00;20.60;99.90
22738;DHT22;11536;50.860;4.286;2022-07-06T11:34:33;20.60;99.90
22738;DHT22;11536;50.860;4.286;2022-07-06T11:37:14;20.60;99.90
22738;DHT22;11536;50.860;4.286;2022-07-06T11:39:44;20.70;99.90
22738;DHT22;11536;50.860;4.286;2022-07-06T11:42:11;20.70;99.90
22738;DHT22;11536;50.860;4.286;2022-07-06T11:44:38;20.70;99.90
22738;DHT22;11536;50.860;4.286;2022-07-06T11:47:05;20.80;99.90
22738;DHT22;11536;50.860;4.286;2022-07-06T11:49:32;20.80;99.90
22738;DHT22;11536;50.860;4.286;2022-07-06T11:51:59;20.80;99.90
22738;DHT22;11536;50.860;4.286;2022-07-06T11:54:26;20.90;99.90
22738;DHT22;11536;50.860;4.286;2022-07-06T11:56:56;20.90;99.90
22738;DHT22;11536;50.860;4.286;2022-07-06T12:02:03;20.90;99.90
22738;DHT22;11536;50.860;4.286;2022-07-06T12:04:30;21.00;99.90
22738;DHT22;11536;50.860;4.286;2022-07-06T12:07:00;21.10;99.90
22738;DHT22;11536;50.860;4.286;2022-07-06T12:09:32;21.10;99.90
22738;DHT22;11536;50.860;4.286;2022-07-06T12:11:58;21.10;99.90
22738;DHT22;11536;50.860;4.286;2022-07-06T12:14:28;21.10;99.90
22738;DHT22;11536;50.860;4.286;2022-07-06T12:17:06;21.00;99.80
22738;DHT22;11536;50.860;4.286;2022-07-06T12:19:32;21.00;99.90
22738;DHT22;11536;50.860;4.286;2022-07-06T12:21:58;21.10;99.90
22738;DHT22;11536;50.860;4.286;2022-07-06T12:24:26;21.10;99.90
22738;DHT22;11536;50.860;4.286;2022-07-06T12:27:15;21.10;99.90
22738;DHT22;11536;50.860;4.286;2022-07-06T12:29:41;21.10;99.90
22738;DHT22;11536;50.860;4.286;2022-07-06T12:32:14;21.10;99.90
22738;DHT22;11536;50.860;4.286;2022-07-06T12:34:40;21.20;99.90
22738;DHT22;11536;50.860;4.286;2022-07-06T12:37:07;21.20;99.90
22738;DHT22;11536;50.860;4.286;2022-07-06T12:39:45;21.30;99.90
22738;DHT22;11536;50.860;4.286;2022-07-06T12:42:14;21.50;99.90
22738;DHT22;11536;50.860;4.286;2022-07-06T12:44:45;21.70;99.90
22738;DHT22;11536;50.860;4.286;2022-07-06T12:47:11;21.90;99.90
22738;DHT22;11536;50.860;4.286;2022-07-06T12:49:38;22.00;99.90
22738;DHT22;11536;50.860;4.286;2022-07-06T12:54:41;22.00;99.30
22738;DHT22;11536;50.860;4.286;2022-07-06T12:59:54;22.10;99.90
22738;DHT22;11536;50.860;4.286;2022-07-06T13:02:31;22.30;99.90
22738;DHT22;11536;50.860;4.286;2022-07-06T13:04:59;22.50;99.90
22738;DHT22;11536;50.860;4.286;2022-07-06T13:07:27;22.50;99.30
22738;DHT22;11536;50.860;4.286;2022-07-06T13:09:54;22.50;99.90
22738;DHT22;11536;50.860;4.286;2022-07-06T13:12:21;22.50;99.90
22738;DHT22;11536;50.860;4.286;2022-07-06T13:14:47;22.50;99.90
22738;DHT22;11536;50.860;4.286;2022-07-06T13:17:13;22.60;99.90
22738;DHT22;11536;50.860;4.286;2022-07-06T13:19:38;22.70;99.90
22738;DHT22;11536;50.860;4.286;2022-07-06T13:22:04;22.70;99.90
22738;DHT22;11536;50.860;4.286;2022-07-06T13:24:30;22.70;99.90
22738;DHT22;11536;50.860;4.286;2022-07-06T13:26:56;22.80;99.90
22738;DHT22;11536;50.860;4.286;2022-07-06T13:29:23;22.80;99.90
22738;DHT22;11536;50.860;4.286;2022-07-06T13:31:49;22.90;99.30
22738;DHT22;11536;50.860;4.286;2022-07-06T13:34:14;22.90;99.70
22738;DHT22;11536;50.860;4.286;2022-07-06T13:36:40;22.90;99.90
22738;DHT22;11536;50.860;4.286;2022-07-06T13:39:06;23.00;99.90
22738;DHT22;11536;50.860;4.286;2022-07-06T13:41:33;23.10;99.90
22738;DHT22;11536;50.860;4.286;2022-07-06T13:43:59;23.10;99.80
22738;DHT22;11536;50.860;4.286;2022-07-06T13:46:27;23.20;99.80
22738;DHT22;11536;50.860;4.286;2022-07-06T13:48:53;23.20;99.50
22738;DHT22;11536;50.860;4.286;2022-07-06T13:51:19;23.20;99.60
22738;DHT22;11536;50.860;4.286;2022-07-06T13:53:45;23.20;99.70
22738;DHT22;11536;50.860;4.286;2022-07-06T13:56:11;23.10;99.20
22738;DHT22;11536;50.860;4.286;2022-07-06T13:58:37;23.10;99.60
22738;DHT22;11536;50.860;4.286;2022-07-06T14:01:04;23.00;99.70
22738;DHT22;11536;50.860;4.286;2022-07-06T14:03:29;23.00;99.70
22738;DHT22;11536;50.860;4.286;2022-07-06T14:05:57;23.00;99.70
22738;DHT22;11536;50.860;4.286;2022-07-06T14:08:22;23.00;99.60
22738;DHT22;11536;50.860;4.286;2022-07-06T14:10:48;23.00;99.90
22738;DHT22;11536;50.860;4.286;2022-07-06T14:13:14;23.00;99.60
22738;DHT22;11536;50.860;4.286;2022-07-06T14:15:39;23.10;99.80
22738;DHT22;11536;50.860;4.286;2022-07-06T14:18:05;23.10;99.80
22738;DHT22;11536;50.860;4.286;2022-07-06T14:20:31;23.10;98.90
22738;DHT22;11536;50.860;4.286;2022-07-06T14:22:56;23.00;98.90
22738;DHT22;11536;50.860;4.286;2022-07-06T14:25:22;23.00;99.30
22738;DHT22;11536;50.860;4.286;2022-07-06T14:27:47;23.00;99.00
22738;DHT22;11536;50.860;4.286;2022-07-06T14:30:13;23.00;99.40
22738;DHT22;11536;50.860;4.286;2022-07-06T14:32:39;23.00;99.50
22738;DHT22;11536;50.860;4.286;2022-07-06T14:35:07;23.10;99.70
22738;DHT22;11536;50.860;4.286;2022-07-06T14:37:41;23.20;99.80
22738;DHT22;11536;50.860;4.286;2022-07-06T14:40:07;23.30;99.70
22738;DHT22;11536;50.860;4.286;2022-07-06T14:42:33;23.30;99.40
22738;DHT22;11536;50.860;4.286;2022-07-06T14:44:58;23.30;99.10
22738;DHT22;11536;50.860;4.286;2022-07-06T14:47:24;23.40;99.30
22738;DHT22;11536;50.860;4.286;2022-07-06T14:49:49;23.30;98.80
22738;DHT22;11536;50.860;4.286;2022-07-06T14:52:16;23.30;98.20
22738;DHT22;11536;50.860;4.286;2022-07-06T14:54:41;23.20;98.60
22738;DHT22;11536;50.860;4.286;2022-07-06T14:57:07;23.20;98.50
22738;DHT22;11536;50.860;4.286;2022-07-06T14:59:34;23.10;98.40
22738;DHT22;11536;50.860;4.286;2022-07-06T15:02:00;23.10;98.70
22738;DHT22;11536;50.860;4.286;2022-07-06T15:04:26;23.20;98.90
22738;DHT22;11536;50.860;4.286;2022-07-06T15:06:51;23.20;98.00
22738;DHT22;11536;50.860;4.286;2022-07-06T15:09:17;23.30;98.70
22738;DHT22;11536;50.860;4.286;2022-07-06T15:11:42;23.30;98.60
22738;DHT22;11536;50.860;4.286;2022-07-06T15:14:10;23.40;98.60
22738;DHT22;11536;50.860;4.286;2022-07-06T15:16:36;23.40;98.80
22738;DHT22;11536;50.860;4.286;2022-07-06T15:19:02;23.40;98.70
22738;DHT22;11536;50.860;4.286;2022-07-06T15:21:28;23.40;98.40
22738;DHT22;11536;50.860;4.286;2022-07-06T15:23:53;23.40;98.40
22738;DHT22;11536;50.860;4.286;2022-07-06T15:26:19;23.40;98.40
22738;DHT22;11536;50.860;4.286;2022-07-06T15:28:45;23.30;97.80
22738;DHT22;11536;50.860;4.286;2022-07-06T15:31:10;23.30;97.90
22738;DHT22;11536;50.860;4.286;2022-07-06T15:33:36;23.20;98.10
22738;DHT22;11536;50.860;4.286;2022-07-06T15:36:01;23.20;98.10
22738;DHT22;11536;50.860;4.286;2022-07-06T15:38:27;23.20;98.10
22738;DHT22;11536;50.860;4.286;2022-07-06T15:40:59;23.20;98.30